Hlavní strana
METAR-TAF:

METAR-TAF

Letiště :

Tomsk, Rusko

zeměpisná šířka: 56-23-12N, zeměpisná délka: 085-12-38E, výška: 182 m

Aktuální stav počasí

Zpráva byla vytvořena před 1 hodinou a 40 minutami, v 22:30 UTC
Jižní vítr 10 kt
Teplota -5°C
Vlhkost vzduchu 73%
Tlak 1023 hPa
Viditelnost 10 km a více
Žádná oblačnost pod 1500 m, nevyskytují se cumulonimby.

METAR: UNTT 212230Z 19005MPS CAVOK M05/M09 Q1023 R21/190050 NOSIG RMK QFE752

Čas: 07:10 (00:10 UTC)

Předpověď počasí

Zpráva byla vytvořena před 1 hodinou a 10 minutami, v 23:00 UTC
Předpověď platná od 22 v 00 UTC do 22 v 09 UTC
Jihojihozápadní vítr 12 kt s nárazy do 21 kt
Viditelnost 10 km a více
Žádná oblačnost pod 1500 m, nevyskytují se cumulonimby.

TAF: UNTT 212300Z 2200/2209 20006G11MPS CAVOK

Stav a předpovědi počasí z více než 4 000 letišť (zprávy METAR a TAF).

Červené a žluté tečky na mapě představují dostupné meteorologické stanice.

Když kurzor umístíte na tečku, zobrazí se název stanice.

Pak kliknutím zobrazíte stav a předpověď počasí.

Chcete-li změnit mapu, kliknutím na zelené tlačítko se znaménkem +mapu přiblížíte, kliknutím na zelené tlačítko se znaménkem – mapu oddálíte a kliknutím na zelené šipky přejdete na sousední mapy.


METAR-TAF: